sensor_id;sensor_type;location;lat;lon;timestamp;P1;durP1;ratioP1;P2;durP2;ratioP2
11187;SDS011;5650;52.700;7.306;2022-12-07T00:01:39;13.95;;;11.00;;
11187;SDS011;5650;52.700;7.306;2022-12-07T00:04:07;14.77;;;11.07;;
11187;SDS011;5650;52.700;7.306;2022-12-07T00:06:39;14.50;;;10.23;;
11187;SDS011;5650;52.700;7.306;2022-12-07T00:09:12;16.95;;;10.10;;
11187;SDS011;5650;52.700;7.306;2022-12-07T00:11:40;16.75;;;9.50;;
11187;SDS011;5650;52.700;7.306;2022-12-07T00:14:10;12.15;;;9.30;;
11187;SDS011;5650;52.700;7.306;2022-12-07T00:16:38;15.65;;;9.75;;
11187;SDS011;5650;52.700;7.306;2022-12-07T00:19:05;13.30;;;8.95;;
11187;SDS011;5650;52.700;7.306;2022-12-07T00:21:36;14.52;;;9.05;;
11187;SDS011;5650;52.700;7.306;2022-12-07T00:24:09;14.32;;;8.70;;
11187;SDS011;5650;52.700;7.306;2022-12-07T00:26:38;11.75;;;8.48;;
11187;SDS011;5650;52.700;7.306;2022-12-07T00:29:13;13.73;;;8.35;;
11187;SDS011;5650;52.700;7.306;2022-12-07T00:31:42;11.25;;;7.57;;
11187;SDS011;5650;52.700;7.306;2022-12-07T00:34:11;11.05;;;7.07;;
11187;SDS011;5650;52.700;7.306;2022-12-07T00:36:40;12.80;;;7.15;;
11187;SDS011;5650;52.700;7.306;2022-12-07T00:39:09;9.05;;;6.70;;
11187;SDS011;5650;52.700;7.306;2022-12-07T00:41:36;12.30;;;6.55;;
11187;SDS011;5650;52.700;7.306;2022-12-07T00:44:03;15.00;;;6.00;;
11187;SDS011;5650;52.700;7.306;2022-12-07T00:46:30;12.80;;;5.20;;
11187;SDS011;5650;52.700;7.306;2022-12-07T00:49:06;8.25;;;5.18;;
11187;SDS011;5650;52.700;7.306;2022-12-07T00:51:33;10.20;;;5.28;;
11187;SDS011;5650;52.700;7.306;2022-12-07T00:54:12;9.55;;;4.65;;
11187;SDS011;5650;52.700;7.306;2022-12-07T00:56:52;9.68;;;4.72;;
11187;SDS011;5650;52.700;7.306;2022-12-07T00:59:19;9.93;;;4.70;;
11187;SDS011;5650;52.700;7.306;2022-12-07T01:01:46;9.48;;;4.15;;
11187;SDS011;5650;52.700;7.306;2022-12-07T01:04:13;9.52;;;4.00;;
11187;SDS011;5650;52.700;7.306;2022-12-07T01:06:40;11.65;;;4.20;;
11187;SDS011;5650;52.700;7.306;2022-12-07T01:09:08;7.03;;;3.72;;
11187;SDS011;5650;52.700;7.306;2022-12-07T01:11:39;10.63;;;4.65;;
11187;SDS011;5650;52.700;7.306;2022-12-07T01:14:12;11.65;;;3.88;;
11187;SDS011;5650;52.700;7.306;2022-12-07T01:16:39;10.68;;;3.40;;
11187;SDS011;5650;52.700;7.306;2022-12-07T01:19:09;10.18;;;3.80;;
11187;SDS011;5650;52.700;7.306;2022-12-07T01:21:37;10.88;;;3.85;;
11187;SDS011;5650;52.700;7.306;2022-12-07T01:24:09;7.57;;;3.10;;
11187;SDS011;5650;52.700;7.306;2022-12-07T01:26:38;10.88;;;3.25;;
11187;SDS011;5650;52.700;7.306;2022-12-07T01:29:06;6.18;;;2.90;;
11187;SDS011;5650;52.700;7.306;2022-12-07T01:31:36;9.20;;;3.03;;
11187;SDS011;5650;52.700;7.306;2022-12-07T01:34:03;10.23;;;3.05;;
11187;SDS011;5650;52.700;7.306;2022-12-07T01:36:31;11.63;;;3.00;;
11187;SDS011;5650;52.700;7.306;2022-12-07T01:39:05;7.20;;;2.63;;
11187;SDS011;5650;52.700;7.306;2022-12-07T01:41:34;8.02;;;2.58;;
11187;SDS011;5650;52.700;7.306;2022-12-07T01:44:09;8.98;;;2.78;;
11187;SDS011;5650;52.700;7.306;2022-12-07T01:46:39;7.75;;;2.55;;
11187;SDS011;5650;52.700;7.306;2022-12-07T01:49:08;6.80;;;2.58;;
11187;SDS011;5650;52.700;7.306;2022-12-07T01:51:40;9.38;;;2.42;;
11187;SDS011;5650;52.700;7.306;2022-12-07T01:54:11;8.93;;;2.35;;
11187;SDS011;5650;52.700;7.306;2022-12-07T01:56:45;8.35;;;2.30;;
11187;SDS011;5650;52.700;7.306;2022-12-07T01:59:31;11.13;;;2.25;;
11187;SDS011;5650;52.700;7.306;2022-12-07T02:01:59;10.55;;;2.65;;
11187;SDS011;5650;52.700;7.306;2022-12-07T02:04:30;8.55;;;2.33;;
11187;SDS011;5650;52.700;7.306;2022-12-07T02:07:01;7.03;;;2.10;;
11187;SDS011;5650;52.700;7.306;2022-12-07T02:09:30;6.90;;;2.35;;
11187;SDS011;5650;52.700;7.306;2022-12-07T02:11:58;8.25;;;2.50;;
11187;SDS011;5650;52.700;7.306;2022-12-07T02:14:26;9.88;;;2.15;;
11187;SDS011;5650;52.700;7.306;2022-12-07T02:17:00;9.20;;;2.45;;
11187;SDS011;5650;52.700;7.306;2022-12-07T02:25:54;6.55;;;2.08;;
11187;SDS011;5650;52.700;7.306;2022-12-07T02:28:50;12.30;;;2.20;;
11187;SDS011;5650;52.700;7.306;2022-12-07T02:31:38;6.88;;;1.73;;
11187;SDS011;5650;52.700;7.306;2022-12-07T02:34:12;9.32;;;2.22;;
11187;SDS011;5650;52.700;7.306;2022-12-07T02:36:51;7.68;;;1.85;;
11187;SDS011;5650;52.700;7.306;2022-12-07T02:39:25;7.57;;;2.15;;
11187;SDS011;5650;52.700;7.306;2022-12-07T02:42:06;9.65;;;2.13;;
11187;SDS011;5650;52.700;7.306;2022-12-07T02:44:49;10.65;;;2.28;;
11187;SDS011;5650;52.700;7.306;2022-12-07T02:47:18;9.57;;;2.50;;
11187;SDS011;5650;52.700;7.306;2022-12-07T02:49:47;8.23;;;2.15;;
11187;SDS011;5650;52.700;7.306;2022-12-07T02:52:24;10.50;;;3.03;;
11187;SDS011;5650;52.700;7.306;2022-12-07T02:54:51;5.97;;;2.08;;
11187;SDS011;5650;52.700;7.306;2022-12-07T03:00:21;6.55;;;2.00;;
11187;SDS011;5650;52.700;7.306;2022-12-07T03:02:53;5.93;;;2.25;;
11187;SDS011;5650;52.700;7.306;2022-12-07T03:08:24;9.30;;;2.85;;
11187;SDS011;5650;52.700;7.306;2022-12-07T03:10:58;7.25;;;2.30;;
11187;SDS011;5650;52.700;7.306;2022-12-07T03:13:30;9.18;;;2.25;;
11187;SDS011;5650;52.700;7.306;2022-12-07T03:16:07;9.40;;;2.30;;
11187;SDS011;5650;52.700;7.306;2022-12-07T03:18:40;10.80;;;2.35;;
11187;SDS011;5650;52.700;7.306;2022-12-07T03:21:21;13.18;;;2.45;;
11187;SDS011;5650;52.700;7.306;2022-12-07T03:23:52;8.23;;;2.28;;
11187;SDS011;5650;52.700;7.306;2022-12-07T03:26:24;8.45;;;2.28;;
11187;SDS011;5650;52.700;7.306;2022-12-07T03:28:58;11.98;;;2.63;;
11187;SDS011;5650;52.700;7.306;2022-12-07T03:31:30;11.00;;;2.00;;
11187;SDS011;5650;52.700;7.306;2022-12-07T03:34:09;9.57;;;1.98;;
11187;SDS011;5650;52.700;7.306;2022-12-07T03:36:49;10.55;;;1.80;;
11187;SDS011;5650;52.700;7.306;2022-12-07T03:39:24;7.40;;;1.92;;
11187;SDS011;5650;52.700;7.306;2022-12-07T03:41:56;11.68;;;1.90;;
11187;SDS011;5650;52.700;7.306;2022-12-07T03:44:32;7.60;;;1.75;;
11187;SDS011;5650;52.700;7.306;2022-12-07T03:47:03;7.15;;;1.80;;
11187;SDS011;5650;52.700;7.306;2022-12-07T03:49:37;7.53;;;1.77;;
11187;SDS011;5650;52.700;7.306;2022-12-07T03:52:13;6.63;;;1.90;;
11187;SDS011;5650;52.700;7.306;2022-12-07T03:54:52;8.70;;;1.77;;
11187;SDS011;5650;52.700;7.306;2022-12-07T03:57:32;7.00;;;1.73;;
11187;SDS011;5650;52.700;7.306;2022-12-07T04:00:03;8.25;;;1.85;;
11187;SDS011;5650;52.700;7.306;2022-12-07T04:02:33;6.78;;;1.40;;
11187;SDS011;5650;52.700;7.306;2022-12-07T04:05:00;9.27;;;1.92;;
11187;SDS011;5650;52.700;7.306;2022-12-07T04:07:40;9.90;;;1.77;;
11187;SDS011;5650;52.700;7.306;2022-12-07T04:10:08;8.73;;;1.70;;
11187;SDS011;5650;52.700;7.306;2022-12-07T04:12:36;8.55;;;1.85;;
11187;SDS011;5650;52.700;7.306;2022-12-07T04:15:03;5.65;;;1.63;;
11187;SDS011;5650;52.700;7.306;2022-12-07T04:17:32;7.78;;;2.25;;
11187;SDS011;5650;52.700;7.306;2022-12-07T04:20:00;8.30;;;1.85;;
11187;SDS011;5650;52.700;7.306;2022-12-07T04:22:27;7.22;;;1.90;;
11187;SDS011;5650;52.700;7.306;2022-12-07T04:24:54;8.27;;;2.28;;
11187;SDS011;5650;52.700;7.306;2022-12-07T04:27:21;13.10;;;2.35;;
11187;SDS011;5650;52.700;7.306;2022-12-07T04:29:48;9.40;;;2.13;;
11187;SDS011;5650;52.700;7.306;2022-12-07T04:32:16;7.65;;;2.22;;
11187;SDS011;5650;52.700;7.306;2022-12-07T04:34:44;11.05;;;2.30;;
11187;SDS011;5650;52.700;7.306;2022-12-07T04:37:11;14.18;;;3.00;;
11187;SDS011;5650;52.700;7.306;2022-12-07T04:39:42;13.93;;;2.28;;
11187;SDS011;5650;52.700;7.306;2022-12-07T04:42:10;9.30;;;2.08;;
11187;SDS011;5650;52.700;7.306;2022-12-07T04:44:44;8.88;;;2.15;;
11187;SDS011;5650;52.700;7.306;2022-12-07T04:47:12;12.05;;;2.13;;
11187;SDS011;5650;52.700;7.306;2022-12-07T04:49:39;9.23;;;2.28;;
11187;SDS011;5650;52.700;7.306;2022-12-07T04:52:07;11.80;;;2.85;;
11187;SDS011;5650;52.700;7.306;2022-12-07T04:54:41;11.38;;;2.67;;
11187;SDS011;5650;52.700;7.306;2022-12-07T04:57:08;12.73;;;2.38;;
11187;SDS011;5650;52.700;7.306;2022-12-07T04:59:38;7.35;;;1.88;;
11187;SDS011;5650;52.700;7.306;2022-12-07T05:02:08;10.45;;;2.38;;
11187;SDS011;5650;52.700;7.306;2022-12-07T05:04:38;7.05;;;1.95;;
11187;SDS011;5650;52.700;7.306;2022-12-07T05:07:05;17.27;;;2.85;;
11187;SDS011;5650;52.700;7.306;2022-12-07T05:09:43;11.02;;;2.17;;
11187;SDS011;5650;52.700;7.306;2022-12-07T05:12:10;10.85;;;2.30;;
11187;SDS011;5650;52.700;7.306;2022-12-07T05:14:37;9.40;;;2.30;;
11187;SDS011;5650;52.700;7.306;2022-12-07T05:17:07;10.27;;;2.42;;
11187;SDS011;5650;52.700;7.306;2022-12-07T05:19:42;7.53;;;2.15;;
11187;SDS011;5650;52.700;7.306;2022-12-07T05:22:14;11.57;;;2.30;;
11187;SDS011;5650;52.700;7.306;2022-12-07T05:24:41;12.73;;;3.05;;
11187;SDS011;5650;52.700;7.306;2022-12-07T05:27:08;10.25;;;2.72;;
11187;SDS011;5650;52.700;7.306;2022-12-07T05:29:41;13.50;;;2.75;;
11187;SDS011;5650;52.700;7.306;2022-12-07T05:32:08;9.50;;;2.60;;
11187;SDS011;5650;52.700;7.306;2022-12-07T05:34:35;14.30;;;3.45;;
11187;SDS011;5650;52.700;7.306;2022-12-07T05:37:02;10.30;;;2.63;;
11187;SDS011;5650;52.700;7.306;2022-12-07T05:39:31;12.32;;;3.00;;
11187;SDS011;5650;52.700;7.306;2022-12-07T05:41:59;13.32;;;2.70;;
11187;SDS011;5650;52.700;7.306;2022-12-07T05:44:38;7.88;;;2.45;;
11187;SDS011;5650;52.700;7.306;2022-12-07T05:47:05;8.60;;;2.38;;
11187;SDS011;5650;52.700;7.306;2022-12-07T05:49:33;11.48;;;2.20;;
11187;SDS011;5650;52.700;7.306;2022-12-07T05:52:00;11.60;;;2.13;;
11187;SDS011;5650;52.700;7.306;2022-12-07T05:54:35;13.10;;;2.03;;
11187;SDS011;5650;52.700;7.306;2022-12-07T05:57:02;10.88;;;1.90;;
11187;SDS011;5650;52.700;7.306;2022-12-07T05:59:30;14.20;;;2.17;;
11187;SDS011;5650;52.700;7.306;2022-12-07T06:02:07;9.95;;;2.30;;
11187;SDS011;5650;52.700;7.306;2022-12-07T06:04:38;8.57;;;1.80;;
11187;SDS011;5650;52.700;7.306;2022-12-07T06:07:13;8.68;;;2.60;;
11187;SDS011;5650;52.700;7.306;2022-12-07T06:09:46;8.85;;;2.20;;
11187;SDS011;5650;52.700;7.306;2022-12-07T06:12:16;9.10;;;2.10;;
11187;SDS011;5650;52.700;7.306;2022-12-07T06:15:00;6.80;;;2.35;;
11187;SDS011;5650;52.700;7.306;2022-12-07T06:17:27;10.18;;;2.22;;
11187;SDS011;5650;52.700;7.306;2022-12-07T06:20:04;14.60;;;2.40;;
11187;SDS011;5650;52.700;7.306;2022-12-07T06:22:32;10.82;;;2.30;;
11187;SDS011;5650;52.700;7.306;2022-12-07T06:25:01;7.97;;;2.22;;
11187;SDS011;5650;52.700;7.306;2022-12-07T06:27:29;6.35;;;2.00;;
11187;SDS011;5650;52.700;7.306;2022-12-07T06:30:04;17.10;;;3.28;;
11187;SDS011;5650;52.700;7.306;2022-12-07T06:32:33;9.13;;;1.98;;
11187;SDS011;5650;52.700;7.306;2022-12-07T06:35:00;8.30;;;1.88;;
11187;SDS011;5650;52.700;7.306;2022-12-07T06:37:31;13.13;;;2.58;;
11187;SDS011;5650;52.700;7.306;2022-12-07T06:40:06;9.23;;;2.10;;
11187;SDS011;5650;52.700;7.306;2022-12-07T06:42:37;6.57;;;2.22;;
11187;SDS011;5650;52.700;7.306;2022-12-07T06:45:05;10.50;;;2.00;;
11187;SDS011;5650;52.700;7.306;2022-12-07T06:47:33;15.18;;;2.63;;
11187;SDS011;5650;52.700;7.306;2022-12-07T06:50:00;11.98;;;1.77;;
11187;SDS011;5650;52.700;7.306;2022-12-07T06:52:27;13.27;;;2.80;;
11187;SDS011;5650;52.700;7.306;2022-12-07T06:54:54;10.93;;;2.35;;
11187;SDS011;5650;52.700;7.306;2022-12-07T06:57:32;11.63;;;2.20;;
11187;SDS011;5650;52.700;7.306;2022-12-07T06:59:59;8.40;;;1.70;;
11187;SDS011;5650;52.700;7.306;2022-12-07T07:02:27;14.13;;;2.15;;
11187;SDS011;5650;52.700;7.306;2022-12-07T07:04:54;9.63;;;3.03;;
11187;SDS011;5650;52.700;7.306;2022-12-07T07:07:21;15.02;;;4.00;;
11187;SDS011;5650;52.700;7.306;2022-12-07T07:09:48;14.95;;;3.35;;
11187;SDS011;5650;52.700;7.306;2022-12-07T07:12:18;12.80;;;3.53;;
11187;SDS011;5650;52.700;7.306;2022-12-07T07:14:47;10.93;;;2.25;;
11187;SDS011;5650;52.700;7.306;2022-12-07T07:17:17;11.80;;;2.67;;
11187;SDS011;5650;52.700;7.306;2022-12-07T07:19:44;9.65;;;2.15;;
11187;SDS011;5650;52.700;7.306;2022-12-07T07:22:12;14.32;;;2.50;;
11187;SDS011;5650;52.700;7.306;2022-12-07T07:24:39;10.52;;;2.25;;
11187;SDS011;5650;52.700;7.306;2022-12-07T07:27:06;8.32;;;2.17;;
11187;SDS011;5650;52.700;7.306;2022-12-07T07:29:33;8.07;;;1.75;;
11187;SDS011;5650;52.700;7.306;2022-12-07T07:32:02;10.93;;;2.22;;
11187;SDS011;5650;52.700;7.306;2022-12-07T07:34:29;8.98;;;2.10;;
11187;SDS011;5650;52.700;7.306;2022-12-07T07:36:57;8.50;;;2.20;;
11187;SDS011;5650;52.700;7.306;2022-12-07T07:39:24;12.68;;;2.35;;
11187;SDS011;5650;52.700;7.306;2022-12-07T07:41:51;12.32;;;2.22;;
11187;SDS011;5650;52.700;7.306;2022-12-07T07:44:18;6.88;;;2.13;;
11187;SDS011;5650;52.700;7.306;2022-12-07T07:46:46;10.07;;;2.53;;
11187;SDS011;5650;52.700;7.306;2022-12-07T07:49:14;7.97;;;2.42;;
11187;SDS011;5650;52.700;7.306;2022-12-07T07:51:42;14.20;;;2.80;;
11187;SDS011;5650;52.700;7.306;2022-12-07T07:54:09;14.10;;;2.70;;
11187;SDS011;5650;52.700;7.306;2022-12-07T07:56:36;10.48;;;2.17;;
11187;SDS011;5650;52.700;7.306;2022-12-07T07:59:04;10.40;;;2.30;;
11187;SDS011;5650;52.700;7.306;2022-12-07T08:01:31;14.07;;;2.38;;
11187;SDS011;5650;52.700;7.306;2022-12-07T08:03:58;14.45;;;2.45;;
11187;SDS011;5650;52.700;7.306;2022-12-07T08:06:27;13.68;;;2.65;;
11187;SDS011;5650;52.700;7.306;2022-12-07T08:08:54;10.02;;;2.22;;
11187;SDS011;5650;52.700;7.306;2022-12-07T08:11:23;11.18;;;2.30;;
11187;SDS011;5650;52.700;7.306;2022-12-07T08:13:50;8.48;;;2.42;;
11187;SDS011;5650;52.700;7.306;2022-12-07T08:16:17;7.43;;;2.50;;
11187;SDS011;5650;52.700;7.306;2022-12-07T08:18:45;10.32;;;2.47;;
11187;SDS011;5650;52.700;7.306;2022-12-07T08:21:13;18.30;;;3.53;;
11187;SDS011;5650;52.700;7.306;2022-12-07T08:23:43;13.13;;;2.42;;
11187;SDS011;5650;52.700;7.306;2022-12-07T08:26:11;20.63;;;2.78;;
11187;SDS011;5650;52.700;7.306;2022-12-07T08:28:40;16.50;;;2.40;;
11187;SDS011;5650;52.700;7.306;2022-12-07T08:31:15;12.68;;;3.13;;
11187;SDS011;5650;52.700;7.306;2022-12-07T08:33:44;8.07;;;2.20;;
11187;SDS011;5650;52.700;7.306;2022-12-07T08:36:18;14.75;;;2.25;;
11187;SDS011;5650;52.700;7.306;2022-12-07T08:38:48;15.20;;;2.25;;
11187;SDS011;5650;52.700;7.306;2022-12-07T08:41:16;10.30;;;2.72;;
11187;SDS011;5650;52.700;7.306;2022-12-07T08:43:44;9.23;;;2.15;;
11187;SDS011;5650;52.700;7.306;2022-12-07T08:46:13;10.05;;;2.17;;
11187;SDS011;5650;52.700;7.306;2022-12-07T08:48:44;8.02;;;1.80;;
11187;SDS011;5650;52.700;7.306;2022-12-07T08:51:19;9.70;;;2.47;;
11187;SDS011;5650;52.700;7.306;2022-12-07T08:53:49;12.85;;;2.38;;
11187;SDS011;5650;52.700;7.306;2022-12-07T08:56:17;12.77;;;2.40;;
11187;SDS011;5650;52.700;7.306;2022-12-07T08:58:48;5.30;;;1.95;;
11187;SDS011;5650;52.700;7.306;2022-12-07T09:01:15;12.98;;;2.25;;
11187;SDS011;5650;52.700;7.306;2022-12-07T09:03:43;10.82;;;2.67;;
11187;SDS011;5650;52.700;7.306;2022-12-07T09:06:10;9.80;;;2.20;;
11187;SDS011;5650;52.700;7.306;2022-12-07T09:08:38;10.27;;;2.63;;
11187;SDS011;5650;52.700;7.306;2022-12-07T09:11:11;8.45;;;1.88;;
11187;SDS011;5650;52.700;7.306;2022-12-07T09:13:38;9.68;;;1.90;;
11187;SDS011;5650;52.700;7.306;2022-12-07T09:16:06;11.02;;;3.08;;
11187;SDS011;5650;52.700;7.306;2022-12-07T09:18:33;10.10;;;4.57;;
11187;SDS011;5650;52.700;7.306;2022-12-07T09:21:00;19.75;;;8.60;;
11187;SDS011;5650;52.700;7.306;2022-12-07T09:23:27;7.03;;;3.08;;
11187;SDS011;5650;52.700;7.306;2022-12-07T09:25:54;4.82;;;1.92;;
11187;SDS011;5650;52.700;7.306;2022-12-07T09:28:26;9.85;;;2.28;;
11187;SDS011;5650;52.700;7.306;2022-12-07T09:30:53;11.30;;;3.03;;
11187;SDS011;5650;52.700;7.306;2022-12-07T09:33:20;9.15;;;3.25;;
11187;SDS011;5650;52.700;7.306;2022-12-07T09:35:48;8.10;;;3.30;;
11187;SDS011;5650;52.700;7.306;2022-12-07T09:38:16;16.80;;;3.15;;
11187;SDS011;5650;52.700;7.306;2022-12-07T09:40:44;16.00;;;2.50;;
11187;SDS011;5650;52.700;7.306;2022-12-07T09:43:12;14.05;;;3.38;;
11187;SDS011;5650;52.700;7.306;2022-12-07T09:45:43;12.73;;;3.03;;
11187;SDS011;5650;52.700;7.306;2022-12-07T09:48:14;8.20;;;1.88;;
11187;SDS011;5650;52.700;7.306;2022-12-07T09:50:45;14.10;;;2.88;;
11187;SDS011;5650;52.700;7.306;2022-12-07T09:53:14;7.72;;;1.90;;
11187;SDS011;5650;52.700;7.306;2022-12-07T09:55:44;12.30;;;3.08;;
11187;SDS011;5650;52.700;7.306;2022-12-07T09:58:12;10.20;;;1.80;;
11187;SDS011;5650;52.700;7.306;2022-12-07T10:00:48;10.68;;;2.08;;
11187;SDS011;5650;52.700;7.306;2022-12-07T10:03:16;12.13;;;2.50;;
11187;SDS011;5650;52.700;7.306;2022-12-07T10:05:44;9.15;;;2.38;;
11187;SDS011;5650;52.700;7.306;2022-12-07T10:08:13;7.10;;;1.88;;
11187;SDS011;5650;52.700;7.306;2022-12-07T10:10:42;6.60;;;1.58;;
11187;SDS011;5650;52.700;7.306;2022-12-07T10:13:12;12.70;;;2.25;;
11187;SDS011;5650;52.700;7.306;2022-12-07T10:15:44;9.40;;;2.22;;
11187;SDS011;5650;52.700;7.306;2022-12-07T10:18:20;13.90;;;2.75;;
11187;SDS011;5650;52.700;7.306;2022-12-07T10:20:59;9.07;;;2.53;;
11187;SDS011;5650;52.700;7.306;2022-12-07T10:23:29;11.98;;;3.00;;
11187;SDS011;5650;52.700;7.306;2022-12-07T10:25:56;8.75;;;2.80;;
11187;SDS011;5650;52.700;7.306;2022-12-07T10:28:27;12.13;;;3.47;;
11187;SDS011;5650;52.700;7.306;2022-12-07T10:31:15;11.10;;;3.30;;
11187;SDS011;5650;52.700;7.306;2022-12-07T10:33:48;9.27;;;3.58;;
11187;SDS011;5650;52.700;7.306;2022-12-07T10:36:18;9.20;;;2.75;;
11187;SDS011;5650;52.700;7.306;2022-12-07T10:38:49;11.38;;;3.38;;
11187;SDS011;5650;52.700;7.306;2022-12-07T10:41:18;9.13;;;2.97;;
11187;SDS011;5650;52.700;7.306;2022-12-07T10:43:47;10.88;;;2.67;;
11187;SDS011;5650;52.700;7.306;2022-12-07T10:52:23;12.80;;;2.97;;
11187;SDS011;5650;52.700;7.306;2022-12-07T10:55:04;9.82;;;2.92;;
11187;SDS011;5650;52.700;7.306;2022-12-07T10:57:41;8.88;;;2.50;;
11187;SDS011;5650;52.700;7.306;2022-12-07T11:00:19;9.38;;;2.90;;
11187;SDS011;5650;52.700;7.306;2022-12-07T11:02:52;10.75;;;2.30;;
11187;SDS011;5650;52.700;7.306;2022-12-07T11:05:31;10.00;;;2.20;;
11187;SDS011;5650;52.700;7.306;2022-12-07T11:08:12;9.52;;;2.25;;
11187;SDS011;5650;52.700;7.306;2022-12-07T11:10:47;7.45;;;1.88;;
11187;SDS011;5650;52.700;7.306;2022-12-07T11:13:33;6.90;;;1.92;;
11187;SDS011;5650;52.700;7.306;2022-12-07T11:16:18;9.30;;;2.03;;
11187;SDS011;5650;52.700;7.306;2022-12-07T11:18:52;8.25;;;2.33;;
11187;SDS011;5650;52.700;7.306;2022-12-07T11:21:30;7.88;;;2.08;;
11187;SDS011;5650;52.700;7.306;2022-12-07T11:24:09;8.77;;;2.25;;
11187;SDS011;5650;52.700;7.306;2022-12-07T11:26:47;10.18;;;1.90;;
11187;SDS011;5650;52.700;7.306;2022-12-07T11:29:33;7.80;;;2.05;;
11187;SDS011;5650;52.700;7.306;2022-12-07T11:32:14;10.48;;;2.10;;
11187;SDS011;5650;52.700;7.306;2022-12-07T11:34:49;10.55;;;2.50;;
11187;SDS011;5650;52.700;7.306;2022-12-07T11:37:28;8.18;;;1.90;;
11187;SDS011;5650;52.700;7.306;2022-12-07T11:40:00;6.38;;;1.80;;
11187;SDS011;5650;52.700;7.306;2022-12-07T11:42:31;9.43;;;2.70;;
11187;SDS011;5650;52.700;7.306;2022-12-07T11:45:10;13.43;;;5.15;;
11187;SDS011;5650;52.700;7.306;2022-12-07T11:47:45;12.45;;;2.40;;
11187;SDS011;5650;52.700;7.306;2022-12-07T11:50:30;6.10;;;2.13;;
11187;SDS011;5650;52.700;7.306;2022-12-07T11:53:01;7.40;;;2.80;;
11187;SDS011;5650;52.700;7.306;2022-12-07T11:55:38;7.70;;;2.83;;
11187;SDS011;5650;52.700;7.306;2022-12-07T11:58:36;11.93;;;2.42;;
11187;SDS011;5650;52.700;7.306;2022-12-07T12:01:20;10.23;;;3.30;;
11187;SDS011;5650;52.700;7.306;2022-12-07T12:04:06;11.52;;;2.70;;
11187;SDS011;5650;52.700;7.306;2022-12-07T12:06:45;9.65;;;2.35;;
11187;SDS011;5650;52.700;7.306;2022-12-07T12:09:23;9.07;;;2.28;;
11187;SDS011;5650;52.700;7.306;2022-12-07T12:15:09;9.50;;;1.88;;
11187;SDS011;5650;52.700;7.306;2022-12-07T12:20:49;8.70;;;2.05;;
11187;SDS011;5650;52.700;7.306;2022-12-07T12:23:35;5.85;;;1.70;;
11187;SDS011;5650;52.700;7.306;2022-12-07T12:26:07;11.27;;;1.80;;
11187;SDS011;5650;52.700;7.306;2022-12-07T12:28:54;11.43;;;2.40;;
11187;SDS011;5650;52.700;7.306;2022-12-07T12:31:34;7.65;;;1.63;;
11187;SDS011;5650;52.700;7.306;2022-12-07T12:36:57;8.15;;;2.33;;
11187;SDS011;5650;52.700;7.306;2022-12-07T12:39:30;15.68;;;2.30;;
11187;SDS011;5650;52.700;7.306;2022-12-07T12:41:58;5.05;;;1.98;;
11187;SDS011;5650;52.700;7.306;2022-12-07T12:44:43;6.38;;;1.85;;
11187;SDS011;5650;52.700;7.306;2022-12-07T12:50:30;8.57;;;2.20;;
11187;SDS011;5650;52.700;7.306;2022-12-07T12:53:22;8.70;;;2.28;;
11187;SDS011;5650;52.700;7.306;2022-12-07T12:56:14;5.00;;;1.40;;
11187;SDS011;5650;52.700;7.306;2022-12-07T13:01:51;4.13;;;1.50;;
11187;SDS011;5650;52.700;7.306;2022-12-07T13:04:34;7.15;;;1.70;;
11187;SDS011;5650;52.700;7.306;2022-12-07T13:07:13;8.20;;;2.75;;
11187;SDS011;5650;52.700;7.306;2022-12-07T13:10:33;6.60;;;2.00;;
11187;SDS011;5650;52.700;7.306;2022-12-07T13:25:36;8.10;;;2.00;;
11187;SDS011;5650;52.700;7.306;2022-12-07T13:28:14;7.22;;;2.20;;
11187;SDS011;5650;52.700;7.306;2022-12-07T13:30:45;13.90;;;2.67;;
11187;SDS011;5650;52.700;7.306;2022-12-07T13:33:17;7.80;;;2.33;;
11187;SDS011;5650;52.700;7.306;2022-12-07T13:35:48;10.63;;;2.47;;
11187;SDS011;5650;52.700;7.306;2022-12-07T13:38:27;18.40;;;3.55;;
11187;SDS011;5650;52.700;7.306;2022-12-07T13:41:03;16.60;;;3.70;;
11187;SDS011;5650;52.700;7.306;2022-12-07T13:43:41;16.83;;;3.20;;
11187;SDS011;5650;52.700;7.306;2022-12-07T13:46:09;14.93;;;2.47;;
11187;SDS011;5650;52.700;7.306;2022-12-07T13:48:43;9.57;;;2.30;;
11187;SDS011;5650;52.700;7.306;2022-12-07T13:51:21;8.98;;;2.22;;
11187;SDS011;5650;52.700;7.306;2022-12-07T13:53:54;12.82;;;2.20;;
11187;SDS011;5650;52.700;7.306;2022-12-07T13:56:33;11.98;;;5.20;;
11187;SDS011;5650;52.700;7.306;2022-12-07T13:59:01;13.13;;;3.30;;
11187;SDS011;5650;52.700;7.306;2022-12-07T14:01:31;20.20;;;10.93;;
11187;SDS011;5650;52.700;7.306;2022-12-07T14:06:57;10.90;;;2.60;;
11187;SDS011;5650;52.700;7.306;2022-12-07T14:12:36;14.55;;;2.70;;
11187;SDS011;5650;52.700;7.306;2022-12-07T14:15:15;7.82;;;2.50;;
11187;SDS011;5650;52.700;7.306;2022-12-07T14:17:50;16.73;;;2.55;;
11187;SDS011;5650;52.700;7.306;2022-12-07T14:20:34;12.80;;;3.83;;
11187;SDS011;5650;52.700;7.306;2022-12-07T14:23:20;9.85;;;1.88;;
11187;SDS011;5650;52.700;7.306;2022-12-07T14:26:05;13.05;;;3.33;;
11187;SDS011;5650;52.700;7.306;2022-12-07T14:28:35;10.10;;;2.88;;
11187;SDS011;5650;52.700;7.306;2022-12-07T14:31:08;14.57;;;3.40;;
11187;SDS011;5650;52.700;7.306;2022-12-07T14:33:44;10.45;;;3.45;;
11187;SDS011;5650;52.700;7.306;2022-12-07T14:36:14;13.23;;;5.32;;
11187;SDS011;5650;52.700;7.306;2022-12-07T14:38:42;14.15;;;4.68;;
11187;SDS011;5650;52.700;7.306;2022-12-07T14:41:12;22.55;;;9.57;;
11187;SDS011;5650;52.700;7.306;2022-12-07T14:43:58;11.02;;;3.45;;
11187;SDS011;5650;52.700;7.306;2022-12-07T14:46:29;25.33;;;11.98;;
11187;SDS011;5650;52.700;7.306;2022-12-07T14:48:59;19.02;;;6.97;;
11187;SDS011;5650;52.700;7.306;2022-12-07T14:51:26;14.98;;;4.55;;
11187;SDS011;5650;52.700;7.306;2022-12-07T14:53:59;12.52;;;4.05;;
11187;SDS011;5650;52.700;7.306;2022-12-07T14:56:31;11.18;;;3.25;;
11187;SDS011;5650;52.700;7.306;2022-12-07T14:59:01;8.45;;;2.42;;
11187;SDS011;5650;52.700;7.306;2022-12-07T15:01:28;9.38;;;3.20;;
11187;SDS011;5650;52.700;7.306;2022-12-07T15:03:55;7.25;;;2.28;;
11187;SDS011;5650;52.700;7.306;2022-12-07T15:06:23;6.72;;;2.22;;
11187;SDS011;5650;52.700;7.306;2022-12-07T15:08:50;8.65;;;3.10;;
11187;SDS011;5650;52.700;7.306;2022-12-07T15:11:17;6.40;;;2.40;;
11187;SDS011;5650;52.700;7.306;2022-12-07T15:13:46;5.95;;;2.10;;
11187;SDS011;5650;52.700;7.306;2022-12-07T15:16:31;6.40;;;1.80;;
11187;SDS011;5650;52.700;7.306;2022-12-07T15:18:58;5.55;;;2.95;;
11187;SDS011;5650;52.700;7.306;2022-12-07T15:21:25;8.07;;;2.10;;
11187;SDS011;5650;52.700;7.306;2022-12-07T15:23:52;6.20;;;1.73;;
11187;SDS011;5650;52.700;7.306;2022-12-07T15:26:20;6.38;;;1.73;;
11187;SDS011;5650;52.700;7.306;2022-12-07T15:28:49;7.82;;;2.78;;
11187;SDS011;5650;52.700;7.306;2022-12-07T15:31:16;5.63;;;2.30;;
11187;SDS011;5650;52.700;7.306;2022-12-07T15:33:44;10.80;;;3.05;;
11187;SDS011;5650;52.700;7.306;2022-12-07T15:36:19;9.75;;;2.80;;
11187;SDS011;5650;52.700;7.306;2022-12-07T15:38:48;6.93;;;2.17;;
11187;SDS011;5650;52.700;7.306;2022-12-07T15:41:15;6.53;;;2.10;;
11187;SDS011;5650;52.700;7.306;2022-12-07T15:43:43;4.05;;;1.70;;
11187;SDS011;5650;52.700;7.306;2022-12-07T15:46:33;6.00;;;1.63;;
11187;SDS011;5650;52.700;7.306;2022-12-07T15:49:02;5.60;;;1.75;;
11187;SDS011;5650;52.700;7.306;2022-12-07T15:51:29;5.47;;;1.98;;
11187;SDS011;5650;52.700;7.306;2022-12-07T15:53:57;8.50;;;2.22;;
11187;SDS011;5650;52.700;7.306;2022-12-07T15:56:24;4.97;;;1.73;;
11187;SDS011;5650;52.700;7.306;2022-12-07T15:58:52;7.15;;;2.00;;
11187;SDS011;5650;52.700;7.306;2022-12-07T16:01:19;9.98;;;2.00;;
11187;SDS011;5650;52.700;7.306;2022-12-07T16:03:48;5.38;;;1.73;;
11187;SDS011;5650;52.700;7.306;2022-12-07T16:06:15;7.05;;;1.55;;
11187;SDS011;5650;52.700;7.306;2022-12-07T16:08:44;3.45;;;1.45;;
11187;SDS011;5650;52.700;7.306;2022-12-07T16:11:12;3.63;;;1.88;;
11187;SDS011;5650;52.700;7.306;2022-12-07T16:13:40;7.47;;;2.38;;
11187;SDS011;5650;52.700;7.306;2022-12-07T16:16:08;5.95;;;2.10;;